createdAt,value
2023-05-14T00:00:38.727Z,4.35
2023-05-14T00:03:41.240Z,3.92
2023-05-14T00:06:42.935Z,4.45
2023-05-14T00:09:44.529Z,4.10
2023-05-14T00:12:46.139Z,4.45
2023-05-14T00:15:47.738Z,4.60
2023-05-14T00:18:49.346Z,4.82
2023-05-14T00:21:50.992Z,4.05
2023-05-14T00:24:52.608Z,3.63
2023-05-14T00:27:54.569Z,4.43
2023-05-14T00:30:57.149Z,3.97
2023-05-14T00:33:58.759Z,4.18
2023-05-14T00:37:00.364Z,4.18
2023-05-14T00:40:02.035Z,3.35
2023-05-14T00:43:03.783Z,4.22
2023-05-14T00:46:06.055Z,3.95
2023-05-14T00:49:07.820Z,4.40
2023-05-14T00:52:11.016Z,4.40
2023-05-14T00:55:16.574Z,4.15
2023-05-14T00:58:19.325Z,3.85
2023-05-14T01:01:21.175Z,3.50
2023-05-14T01:04:22.868Z,4.15
2023-05-14T01:07:34.070Z,3.28
2023-05-14T01:10:42.274Z,4.60
2023-05-14T01:14:14.675Z,2.88
2023-05-14T01:17:20.097Z,3.92
2023-05-14T01:20:22.321Z,3.17
2023-05-14T01:23:24.109Z,3.13
2023-05-14T01:26:25.974Z,3.92
2023-05-14T01:29:29.134Z,3.63
2023-05-14T01:32:32.298Z,3.85
2023-05-14T01:35:33.982Z,4.30
2023-05-14T01:38:36.460Z,3.58
2023-05-14T01:41:39.496Z,3.70
2023-05-14T01:44:41.754Z,4.75
2023-05-14T01:47:43.370Z,3.60
2023-05-14T01:50:44.981Z,3.30
2023-05-14T01:53:46.573Z,4.18
2023-05-14T01:56:48.229Z,4.32
2023-05-14T01:59:49.781Z,5.05
2023-05-14T02:02:51.562Z,4.63
2023-05-14T02:05:53.125Z,3.78
2023-05-14T02:08:54.658Z,4.18
2023-05-14T02:11:56.240Z,3.65
2023-05-14T02:14:57.807Z,3.53
2023-05-14T02:17:59.444Z,4.25
2023-05-14T02:21:01.058Z,4.22
2023-05-14T02:24:02.718Z,4.20
2023-05-14T02:27:04.989Z,3.63
2023-05-14T02:30:07.130Z,4.85
2023-05-14T02:33:08.935Z,5.05
2023-05-14T02:36:10.631Z,4.25
2023-05-14T02:39:12.172Z,3.65
2023-05-14T02:42:13.725Z,4.20
2023-05-14T02:45:15.365Z,3.95
2023-05-14T02:48:16.949Z,4.85
2023-05-14T02:51:20.119Z,4.30
2023-05-14T02:54:21.710Z,4.20
2023-05-14T02:57:23.329Z,4.15
2023-05-14T03:00:25.261Z,4.90
2023-05-14T03:03:27.388Z,4.57
2023-05-14T03:06:29.534Z,4.50
2023-05-14T03:09:31.120Z,4.68
2023-05-14T03:12:32.722Z,3.28
2023-05-14T03:15:34.409Z,4.32
2023-05-14T03:18:36.793Z,4.20
2023-05-14T03:21:38.459Z,4.35
2023-05-14T03:24:40.869Z,3.45
2023-05-14T03:27:42.432Z,4.43
2023-05-14T03:30:44.162Z,3.88
2023-05-14T03:33:45.906Z,3.97
2023-05-14T03:36:47.524Z,4.03
2023-05-14T03:39:49.114Z,4.38
2023-05-14T03:42:50.908Z,4.15
2023-05-14T03:45:52.800Z,4.55
2023-05-14T03:48:54.540Z,3.95
2023-05-14T03:51:57.382Z,4.30
2023-05-14T03:54:58.915Z,4.18
2023-05-14T03:58:00.609Z,4.55
2023-05-14T04:01:02.145Z,3.70
2023-05-14T04:04:03.897Z,5.20
2023-05-14T04:07:05.597Z,3.63
2023-05-14T04:10:07.714Z,3.88
2023-05-14T04:13:09.447Z,3.92
2023-05-14T04:16:13.325Z,4.65
2023-05-14T04:19:15.015Z,4.55
2023-05-14T04:22:16.718Z,4.75
2023-05-14T04:25:18.591Z,4.53
2023-05-14T04:28:20.159Z,4.88
2023-05-14T04:31:22.097Z,4.65
2023-05-14T04:34:23.695Z,4.63
2023-05-14T04:37:26.098Z,3.67
2023-05-14T04:40:27.758Z,3.80
2023-05-14T04:43:29.310Z,4.40
2023-05-14T04:46:31.139Z,3.88
2023-05-14T04:49:33.447Z,4.28
2023-05-14T04:52:35.506Z,4.05
2023-05-14T04:55:37.365Z,4.45
2023-05-14T04:58:38.962Z,4.18
2023-05-14T05:01:40.634Z,3.88
2023-05-14T05:04:42.251Z,4.30
2023-05-14T05:07:43.829Z,4.68
2023-05-14T05:10:45.399Z,4.13
2023-05-14T05:13:46.974Z,4.95
2023-05-14T05:16:48.603Z,4.90
2023-05-14T05:19:50.380Z,4.25
2023-05-14T05:22:51.958Z,5.35
2023-05-14T05:25:53.579Z,4.03
2023-05-14T05:28:55.223Z,5.15
2023-05-14T05:31:56.830Z,3.80
2023-05-14T05:34:58.503Z,4.45
2023-05-14T05:38:01.605Z,3.83
2023-05-14T05:41:03.467Z,4.03
2023-05-14T05:44:05.184Z,4.55
2023-05-14T05:47:06.833Z,4.07
2023-05-14T05:50:09.797Z,3.88
2023-05-14T05:53:11.474Z,4.68
2023-05-14T05:56:13.049Z,4.03
2023-05-14T05:59:14.742Z,4.97
2023-05-14T06:02:16.336Z,4.10
2023-05-14T06:05:18.898Z,4.65
2023-05-14T06:08:20.541Z,3.65
2023-05-14T06:11:22.342Z,4.75
2023-05-14T06:14:23.927Z,4.43
2023-05-14T06:17:25.713Z,4.25
2023-05-14T06:20:27.343Z,4.85
2023-05-14T06:23:29.775Z,4.65
2023-05-14T06:26:31.334Z,4.57
2023-05-14T06:29:32.920Z,5.28
2023-05-14T06:32:34.544Z,4.30
2023-05-14T06:35:37.107Z,4.38
2023-05-14T06:38:38.695Z,4.57
2023-05-14T06:41:40.323Z,3.78
2023-05-14T06:44:42.472Z,4.70
2023-05-14T06:47:44.170Z,4.78
2023-05-14T06:50:49.167Z,5.13
2023-05-14T06:53:52.337Z,5.63
2023-05-14T06:56:54.293Z,5.05
2023-05-14T06:59:55.838Z,4.53
2023-05-14T07:02:57.431Z,4.95
2023-05-14T07:05:58.981Z,3.97
2023-05-14T07:09:01.671Z,4.30
2023-05-14T07:12:03.364Z,4.70
2023-05-14T07:15:05.660Z,4.57
2023-05-14T07:18:07.286Z,4.40
2023-05-14T07:21:09.115Z,5.35
2023-05-14T07:24:10.705Z,3.92
2023-05-14T07:27:12.561Z,4.65
2023-05-14T07:30:14.721Z,4.47
2023-05-14T07:33:16.427Z,4.43
2023-05-14T07:36:18.025Z,4.75
2023-05-14T07:39:19.723Z,4.25
2023-05-14T07:42:34.578Z,4.70
2023-05-14T07:45:39.038Z,4.13
2023-05-14T07:48:40.665Z,3.80
2023-05-14T07:51:42.367Z,4.38
2023-05-14T07:54:43.931Z,4.78
2023-05-14T07:57:46.106Z,4.43
2023-05-14T08:00:47.679Z,4.20
2023-05-14T08:03:49.604Z,4.53
2023-05-14T08:06:51.731Z,4.25
2023-05-14T08:09:53.298Z,4.40
2023-05-14T08:12:54.933Z,4.00
2023-05-14T08:15:56.605Z,4.00
2023-05-14T08:18:58.188Z,4.38
2023-05-14T08:21:59.791Z,4.22
2023-05-14T08:25:03.483Z,4.07
2023-05-14T08:28:05.464Z,4.70
2023-05-14T08:31:07.082Z,4.95
2023-05-14T08:34:08.658Z,4.35
2023-05-14T08:37:10.254Z,4.35
2023-05-14T08:40:12.545Z,4.45
2023-05-14T08:43:19.745Z,4.63
2023-05-14T08:46:24.130Z,4.57
2023-05-14T08:49:37.456Z,4.75
2023-05-14T08:52:39.733Z,5.22
2023-05-14T08:55:42.538Z,6.05
2023-05-14T08:58:44.120Z,4.38
2023-05-14T09:01:51.741Z,5.22
2023-05-14T09:04:57.131Z,4.35
2023-05-14T09:07:59.394Z,4.28
2023-05-14T09:11:00.945Z,4.30
2023-05-14T09:14:02.584Z,4.10
2023-05-14T09:17:04.303Z,4.90
2023-05-14T09:20:07.154Z,3.70
2023-05-14T09:23:08.780Z,5.13
2023-05-14T09:26:10.867Z,4.70
2023-05-14T09:29:12.434Z,4.75
2023-05-14T09:32:14.083Z,5.05
2023-05-14T09:35:20.221Z,5.18
2023-05-14T09:38:24.178Z,4.55
2023-05-14T09:41:25.875Z,5.53
2023-05-14T09:44:27.805Z,5.78
2023-05-14T09:47:29.368Z,5.22
2023-05-14T09:50:31.210Z,5.85
2023-05-14T09:53:34.291Z,4.95
2023-05-14T09:56:37.098Z,4.72
2023-05-14T09:59:38.679Z,5.35
2023-05-14T10:02:42.809Z,5.00
2023-05-14T10:05:45.126Z,5.32
2023-05-14T10:08:49.119Z,4.28
2023-05-14T10:11:54.263Z,4.80
2023-05-14T10:15:01.338Z,5.10
2023-05-14T10:18:08.091Z,4.82
2023-05-14T10:21:11.381Z,4.70
2023-05-14T10:24:13.293Z,5.03
2023-05-14T10:27:15.285Z,5.40
2023-05-14T10:30:16.860Z,4.72
2023-05-14T10:33:18.901Z,4.82
2023-05-14T10:36:20.833Z,4.65
2023-05-14T10:39:22.431Z,4.72
2023-05-14T10:42:28.982Z,5.68
2023-05-14T10:45:30.805Z,4.95
2023-05-14T10:48:33.313Z,5.75
2023-05-14T10:51:36.677Z,4.68
2023-05-14T10:54:38.876Z,4.72
2023-05-14T10:57:42.814Z,5.22
2023-05-14T11:00:48.219Z,5.10
2023-05-14T11:03:53.334Z,5.70
2023-05-14T11:06:56.655Z,5.55
2023-05-14T11:10:02.953Z,5.10
2023-05-14T11:13:04.666Z,5.93
2023-05-14T11:19:11.449Z,5.28
2023-05-14T11:22:14.516Z,5.05
2023-05-14T11:25:17.008Z,5.78
2023-05-14T11:28:26.609Z,6.18
2023-05-14T11:31:28.211Z,6.10
2023-05-14T11:34:29.850Z,6.03
2023-05-14T11:37:31.466Z,5.78
2023-05-14T11:40:33.030Z,6.88
2023-05-14T11:43:36.543Z,4.80
2023-05-14T11:46:38.153Z,5.80
2023-05-14T11:49:39.854Z,6.38
2023-05-14T11:52:41.773Z,6.40
2023-05-14T11:55:43.545Z,6.68
2023-05-14T11:58:48.998Z,6.70
2023-05-14T12:01:52.343Z,5.43
2023-05-14T12:04:54.145Z,5.63
2023-05-14T12:07:56.262Z,7.07
2023-05-14T12:11:01.558Z,6.65
2023-05-14T12:14:12.257Z,6.65
2023-05-14T12:17:23.239Z,6.70
2023-05-14T12:20:26.340Z,7.30
2023-05-14T12:23:29.682Z,6.40
2023-05-14T12:26:34.319Z,7.18
2023-05-14T12:29:37.994Z,6.82
2023-05-14T12:32:41.249Z,7.25
2023-05-14T12:35:43.118Z,6.97
2023-05-14T12:38:44.729Z,6.38
2023-05-14T12:41:46.510Z,7.80
2023-05-14T12:44:48.226Z,8.93
2023-05-14T12:47:49.863Z,6.78
2023-05-14T12:50:51.849Z,7.65
2023-05-14T12:53:54.292Z,7.65
2023-05-14T12:56:55.967Z,7.88
2023-05-14T12:59:57.636Z,7.60
2023-05-14T13:02:59.269Z,6.32
2023-05-14T13:06:01.415Z,5.97
2023-05-14T13:09:03.371Z,5.75
2023-05-14T13:12:05.387Z,5.05
2023-05-14T13:15:07.541Z,4.57
2023-05-14T13:18:09.191Z,3.70
2023-05-14T13:21:10.899Z,2.97
2023-05-14T13:24:12.479Z,4.05
2023-05-14T13:27:14.086Z,2.97
2023-05-14T13:30:16.205Z,4.40
2023-05-14T13:33:17.737Z,3.53
2023-05-14T13:36:19.413Z,3.10
2023-05-14T13:39:22.756Z,3.25
2023-05-14T13:42:24.382Z,3.65
2023-05-14T13:45:26.142Z,3.70
2023-05-14T13:48:28.154Z,3.25
2023-05-14T13:51:29.765Z,3.72
2023-05-14T13:54:31.342Z,3.83
2023-05-14T13:57:32.924Z,5.00
2023-05-14T14:00:34.476Z,4.13
2023-05-14T14:03:36.051Z,4.80
2023-05-14T14:06:37.622Z,4.68
2023-05-14T14:09:39.168Z,3.22
2023-05-14T14:12:40.963Z,4.32
2023-05-14T14:15:43.549Z,3.83
2023-05-14T14:18:45.282Z,4.22
2023-05-14T14:21:46.956Z,4.50
2023-05-14T14:24:48.533Z,3.65
2023-05-14T14:27:51.000Z,3.88
2023-05-14T14:30:52.711Z,3.38
2023-05-14T14:33:54.259Z,3.65
2023-05-14T14:36:55.834Z,3.15
2023-05-14T14:39:57.439Z,3.15
2023-05-14T14:42:59.010Z,3.50
2023-05-14T14:46:00.684Z,2.88
2023-05-14T14:49:02.281Z,3.40
2023-05-14T14:52:04.037Z,3.00
2023-05-14T14:55:06.287Z,3.70
2023-05-14T14:58:08.221Z,3.63
2023-05-14T15:01:09.886Z,3.28
2023-05-14T15:04:11.644Z,4.65
2023-05-14T15:07:13.737Z,3.33
2023-05-14T15:10:15.477Z,3.42
2023-05-14T15:13:17.650Z,3.08
2023-05-14T15:16:19.301Z,3.28
2023-05-14T15:19:20.916Z,3.55
2023-05-14T15:22:22.511Z,3.15
2023-05-14T15:25:24.761Z,3.22
2023-05-14T15:28:26.709Z,3.38
2023-05-14T15:31:28.392Z,3.67
2023-05-14T15:34:30.021Z,3.40
2023-05-14T15:37:49.465Z,3.22
2023-05-14T15:40:51.279Z,2.42
2023-05-14T15:43:52.822Z,3.03
2023-05-14T15:46:54.444Z,2.72
2023-05-14T15:49:56.110Z,3.53
2023-05-14T15:52:57.734Z,2.50
2023-05-14T15:55:59.310Z,2.72
2023-05-14T15:59:00.888Z,3.28
2023-05-14T16:02:02.552Z,3.03
2023-05-14T16:05:04.396Z,2.25
2023-05-14T16:08:06.278Z,2.20
2023-05-14T16:11:07.956Z,2.90
2023-05-14T16:14:09.626Z,2.97
2023-05-14T16:17:11.525Z,2.70
2023-05-14T16:20:13.145Z,2.63
2023-05-14T16:23:14.774Z,3.22
2023-05-14T16:26:16.432Z,2.67
2023-05-14T16:29:18.274Z,3.25
2023-05-14T16:32:20.116Z,2.95
2023-05-14T16:35:23.006Z,2.88
2023-05-14T16:38:24.688Z,2.92
2023-05-14T16:41:26.234Z,3.58
2023-05-14T16:44:27.810Z,2.92
2023-05-14T16:47:29.454Z,3.60
2023-05-14T16:50:31.048Z,3.15
2023-05-14T16:53:32.635Z,3.30
2023-05-14T16:56:34.240Z,3.60
2023-05-14T16:59:36.189Z,3.53
2023-05-14T17:02:38.071Z,3.72
2023-05-14T17:05:39.672Z,4.30
2023-05-14T17:08:41.759Z,4.78
2023-05-14T17:11:43.422Z,3.50
2023-05-14T17:14:45.111Z,4.30
2023-05-14T17:17:47.359Z,4.63
2023-05-14T17:20:48.925Z,4.10
2023-05-14T17:23:51.663Z,4.38
2023-05-14T17:26:53.317Z,5.03
2023-05-14T17:29:55.062Z,4.70
2023-05-14T17:32:56.731Z,4.22
2023-05-14T17:35:58.675Z,4.65
2023-05-14T17:39:00.353Z,4.82
2023-05-14T17:42:03.619Z,4.28
2023-05-14T17:45:06.011Z,4.95
2023-05-14T17:48:07.835Z,4.18
2023-05-14T17:51:09.598Z,4.90
2023-05-14T17:54:11.160Z,5.22
2023-05-14T17:57:12.734Z,4.75
2023-05-14T18:00:14.587Z,4.95
2023-05-14T18:03:16.235Z,4.50
2023-05-14T18:06:17.932Z,5.55
2023-05-14T18:09:19.535Z,5.70
2023-05-14T18:12:21.126Z,5.57
2023-05-14T18:15:25.432Z,5.53
2023-05-14T18:18:27.593Z,5.32
2023-05-14T18:21:29.189Z,6.13
2023-05-14T18:24:30.780Z,5.10
2023-05-14T18:27:32.438Z,6.70
2023-05-14T18:30:34.085Z,6.50
2023-05-14T18:33:35.691Z,5.70
2023-05-14T18:36:37.672Z,4.57
2023-05-14T18:39:39.519Z,5.28
2023-05-14T18:42:41.354Z,5.20
2023-05-14T18:45:43.384Z,5.25
2023-05-14T18:48:44.933Z,4.68
2023-05-14T18:51:46.747Z,5.72
2023-05-14T18:54:48.335Z,5.25
2023-05-14T18:57:50.196Z,6.13
2023-05-14T19:00:52.542Z,5.45
2023-05-14T19:03:54.217Z,5.85
2023-05-14T19:06:56.136Z,6.75
2023-05-14T19:09:57.700Z,5.70
2023-05-14T19:12:59.331Z,6.05
2023-05-14T19:16:01.080Z,6.25
2023-05-14T19:19:03.181Z,6.07
2023-05-14T19:22:05.245Z,5.28
2023-05-14T19:25:08.127Z,5.32
2023-05-14T19:28:10.127Z,6.40
2023-05-14T19:31:11.756Z,5.88
2023-05-14T19:34:13.343Z,5.18
2023-05-14T19:37:14.928Z,5.45
2023-05-14T19:40:16.658Z,5.60
2023-05-14T19:43:18.210Z,5.95
2023-05-14T19:46:19.815Z,5.18
2023-05-14T19:49:21.387Z,5.30
2023-05-14T19:52:22.961Z,5.18
2023-05-14T19:55:24.920Z,4.82
2023-05-14T19:58:26.816Z,5.93
2023-05-14T20:01:28.958Z,5.20
2023-05-14T20:04:30.792Z,5.22
2023-05-14T20:07:33.438Z,5.25
2023-05-14T20:10:35.054Z,5.60
2023-05-14T20:13:36.798Z,4.88
2023-05-14T20:16:38.489Z,6.18
2023-05-14T20:19:40.121Z,5.32
2023-05-14T20:22:42.850Z,5.70
2023-05-14T20:25:44.899Z,4.57
2023-05-14T20:28:46.473Z,4.70
2023-05-14T20:31:48.039Z,5.25
2023-05-14T20:34:49.615Z,4.53
2023-05-14T20:37:51.211Z,5.00
2023-05-14T20:40:52.793Z,5.40
2023-05-14T20:43:54.366Z,5.05
2023-05-14T20:46:55.987Z,5.60
2023-05-14T20:49:57.562Z,5.45
2023-05-14T20:52:59.079Z,4.38
2023-05-14T20:56:01.358Z,5.45
2023-05-14T20:59:02.952Z,4.70
2023-05-14T21:02:04.791Z,6.07
2023-05-14T21:05:06.982Z,4.82
2023-05-14T21:08:08.651Z,5.88
2023-05-14T21:11:10.244Z,5.82
2023-05-14T21:14:11.779Z,5.07
2023-05-14T21:17:13.324Z,5.20
2023-05-14T21:20:15.699Z,5.75
2023-05-14T21:23:19.479Z,5.25
2023-05-14T21:26:24.406Z,5.03
2023-05-14T21:29:25.998Z,5.07
2023-05-14T21:32:27.760Z,5.68
2023-05-14T21:35:29.371Z,5.15
2023-05-14T21:38:32.475Z,5.40
2023-05-14T21:41:34.066Z,5.60
2023-05-14T21:44:35.737Z,6.22
2023-05-14T21:47:37.923Z,5.38
2023-05-14T21:50:39.567Z,5.72
2023-05-14T21:53:41.278Z,5.90
2023-05-14T21:56:42.841Z,6.50
2023-05-14T21:59:44.407Z,4.80
2023-05-14T22:02:46.146Z,6.15
2023-05-14T22:05:49.223Z,5.18
2023-05-14T22:08:50.801Z,5.72
2023-05-14T22:11:52.435Z,5.03
2023-05-14T22:14:53.970Z,5.28
2023-05-14T22:17:55.831Z,5.38
2023-05-14T22:20:57.421Z,5.82
2023-05-14T22:23:58.990Z,6.22
2023-05-14T22:27:00.587Z,5.57
2023-05-14T22:30:02.256Z,5.15
2023-05-14T22:33:03.900Z,5.40
2023-05-14T22:36:07.015Z,6.13
2023-05-14T22:39:09.314Z,5.57
2023-05-14T22:42:11.801Z,6.15
2023-05-14T22:45:13.424Z,5.72
2023-05-14T22:48:15.239Z,5.93
2023-05-14T22:51:16.936Z,5.60
2023-05-14T22:54:18.586Z,5.43
2023-05-14T22:57:20.401Z,5.43
2023-05-14T23:00:22.010Z,5.40
2023-05-14T23:03:23.650Z,6.13
2023-05-14T23:06:25.380Z,5.45
2023-05-14T23:09:26.931Z,5.88
2023-05-14T23:12:28.490Z,5.72
2023-05-14T23:15:30.257Z,5.63
2023-05-14T23:18:32.222Z,4.88
2023-05-14T23:21:33.865Z,5.38
2023-05-14T23:24:35.554Z,6.10
2023-05-14T23:27:37.200Z,5.85
2023-05-14T23:30:38.782Z,6.15
2023-05-14T23:33:40.350Z,4.72
2023-05-14T23:36:42.666Z,5.13
2023-05-14T23:39:44.303Z,5.05
2023-05-14T23:42:46.442Z,5.82
2023-05-14T23:45:48.082Z,5.85
2023-05-14T23:48:51.929Z,5.03
2023-05-14T23:51:53.526Z,5.65
2023-05-14T23:54:55.066Z,5.57
2023-05-14T23:57:56.804Z,5.35
